CheckWX is a tool to help pilots better visualize weather data.  It is not intended as a substitute for an official pre-flight weather briefing.

23:01:14 UTC

GMFF METAR
Saïss Airport
Fes, Morocco
Current

31 mins ago

GMFF 192230Z 22005KT CAVOK 25/16 Q1014 NOSIG
Observed
Jul-19 @ 22:30 UTC
Wind
  • 220° at 5 KTS
Visibility
10,000+ meters
Flight Rules
VFR
Cloud Levels
  • Clear skies
Temperature
25°C / 77°F
Dewpoint
16°C / 61°F
Humidity
57%
Altimeter
29.94" Hg
Pressure
1013.92 hPa
Previous

1 hour ago

GMFF 192200Z 25006KT CAVOK 25/16 Q1014 NOSIG
Observed
Jul-19 @ 22:00 UTC
Wind
  • 250° at 6 KTS
Visibility
10,000+ meters
Flight Rules
VFR
Cloud Levels
  • Clear skies
Temperature
25°C / 77°F
Dewpoint
16°C / 61°F
Humidity
57%
Altimeter
29.94" Hg
Pressure
1013.92 hPa
Previous

2 hours ago

GMFF 192130Z 26007KT CAVOK 26/17 Q1014 NOSIG
Observed
Jul-19 @ 21:30 UTC
Wind
  • 260° at 7 KTS
Visibility
10,000+ meters
Flight Rules
VFR
Cloud Levels
  • Clear skies
Temperature
26°C / 79°F
Dewpoint
17°C / 63°F
Humidity
58%
Altimeter
29.94" Hg
Pressure
1013.92 hPa